Barbeau, MI (49710)

7:01 PM EST on January 30, 2015 (GMT -0500)
Charlotte Beach | Change Station
CLOSE
Current Station
Personal Weather Station
Location: Barbeau, MI
Elevation: 571 ft
Nearby Weather Stations

Elev 571 ft 46.31 °N, 84.22 °W | Updated 5 minutes ago

Overcast
Overcast
9.6 °F
Feels Like 10 °F
N
0.0
Wind Variable Wind from NW
Gusts 0.0 mph

Today
High -- | Low -- °F
--% Chance of Precip.
Yesterday
High -- | Low -- °F
Precip. -- in
8:02 AM 5:38 PM
Waxing Gibbous, 86% visible
Pressure 30.34 in
Visibility 10.0 miles
Clouds Overcast 3100 ft
Windchill 10 °F
Dew Point 4 °F
Humidity 76%
Rainfall 0.00 in
Snow Depth Not available.
UV 0 out of 12
Pollen .10 out of 12
Air Quality Not available.
Flu Activity Not available.
METAR KCIU 302355Z AUTO 00000KT 10SM OVC031 M12/M14 A3034 RMK AO1 11080 21120 57010

More Conditions Fewer Conditions

Pressure 30.34 in
Visibility 10.0 miles
Clouds Overcast 3100 ft
Windchill 10 °F
Dew Point 4 °F
Humidity 76%
Rainfall 0.00 in
Snow Depth Not available.
UV 0 out of 12
Pollen .10 out of 12
Air Quality Not available.
Flu Activity Not available.
METAR KCIU 302355Z AUTO 00000KT 10SM OVC031 M12/M14 A3034 RMK AO1 11080 21120 57010

More Conditions Fewer Conditions

Nowcast | as of 7:00 PM EST on January 30, 2015

At 8 PM...mostly cloudy. Temperature 3 above. Light winds. At 10 PM...cloudy. Temperature 3 above. Light winds. At 12 am...periods of snow. Temperature 2 above. Light winds. At 2 am...periods of snow. Temperature 3 above. Light winds.

×

10-Day Weather Forecast

Almanac

Astronomy

Jan. 30, 2015 Rise Set
Actual Time
Civil Twilight
Nautical Twilight
Astronomical Twilight
Moon
Length of Visible Light
Length of Day
Tomorrow will be .
, % of the Moon is Illuminated

Today's Extremes

State Highs State Lows

Community

WunderPhotos

Upload Photos

1,791,939 photos uploaded!

WunderBlogs® & News

Nearby

Air Quality

  Air Quality AQ Index Pollutant
Not available.

Snow Depth

Station Depth Elevation

Earthquake Activity

City Distance Mag. Time & Date
Minimum magnitude displayed is 2.5.

Coastal Water Temperatures

Place Temperature

Nearby Weather Stations